Time;durP1;ratioP1;P1;durP2;ratioP2;P2;SDS_P1;SDS_P2;PMS_P1;PMS_P2;Temp;Humidity;BMP_temperature;BMP_pressure;BME280_temperature;BME280_humidity;BME280_pressure;Samples;Min_cycle;Max_cycle;Signal;HPM_P1;HPM_P2
2022/01/22 00:01:46;;;;;;;16.33;5.65;;;4.50;92.00;;;;;;6378096;27;20039;-78
2022/01/22 00:04:48;;;;;;;12.27;4.53;;;4.50;92.00;;;;;;6377347;27;20408;-79
2022/01/22 00:07:50;;;;;;;18.23;5.43;;;4.50;92.00;;;;;;6378939;27;20047;-80
2022/01/22 00:10:53;;;;;;;11.85;5.88;;;4.50;92.00;;;;;;6380793;27;20039;-80
2022/01/22 00:17:19;;;;;;;13.70;5.38;;;4.60;91.90;;;;;;6358645;27;20634;-80
2022/01/22 00:20:23;;;;;;;17.40;5.95;;;4.60;91.90;;;;;;6381330;27;20059;-80
2022/01/22 00:23:27;;;;;;;19.40;5.43;;;4.60;91.80;;;;;;6379613;27;20043;-77
2022/01/22 00:26:30;;;;;;;15.85;5.78;;;4.60;91.80;;;;;;6379794;27;20436;-80
2022/01/22 00:29:32;;;;;;;17.80;5.68;;;4.60;91.80;;;;;;6381068;27;20043;-79
2022/01/22 00:32:33;;;;;;;14.25;5.15;;;4.60;91.80;;;;;;6382348;27;20061;-79
2022/01/22 00:35:36;;;;;;;13.27;5.20;;;4.60;91.80;;;;;;6381646;27;20045;-78
2022/01/22 00:38:37;;;;;;;13.27;4.72;;;4.60;91.80;;;;;;6382471;27;20043;-78
2022/01/22 00:41:40;;;;;;;17.92;4.47;;;4.60;91.80;;;;;;6381036;27;20035;-78
2022/01/22 00:44:43;;;;;;;14.45;5.70;;;4.60;91.90;;;;;;6379818;27;20051;-77
2022/01/22 00:47:45;;;;;;;16.48;5.63;;;4.60;91.90;;;;;;6379000;27;20126;-80
2022/01/22 00:50:51;;;;;;;11.68;5.28;;;4.60;91.80;;;;;;6381564;27;20042;-79
2022/01/22 00:53:53;;;;;;;20.38;6.65;;;4.70;91.70;;;;;;6350892;22;20044;-77
2022/01/22 00:56:56;;;;;;;9.75;6.40;;;4.60;91.60;;;;;;6303148;28;20052;-79
2022/01/22 00:59:58;;;;;;;14.90;4.90;;;4.60;91.60;;;;;;6306881;28;20481;-77
2022/01/22 01:03:00;;;;;;;10.57;4.53;;;4.50;91.70;;;;;;6306065;28;20044;-77
2022/01/22 01:06:02;;;;;;;9.70;4.85;;;4.60;91.80;;;;;;6306670;28;20121;-77
2022/01/22 01:09:06;;;;;;;16.10;4.78;;;4.70;91.80;;;;;;6296515;28;20497;-77
2022/01/22 01:12:12;;;;;;;18.88;6.38;;;4.60;91.60;;;;;;6289356;28;20060;-77
2022/01/22 01:15:25;;;;;;;14.25;5.57;;;4.70;91.70;;;;;;6298473;28;20556;-79
2022/01/22 01:35:06;;;;;;;9.88;5.32;;;4.60;91.60;;;;;;6304558;28;20049;-79
2022/01/22 01:38:08;;;;;;;16.38;5.32;;;4.60;91.60;;;;;;6305565;28;20063;-79
2022/01/22 01:41:19;;;;;;;16.00;6.15;;;4.60;91.40;;;;;;6306601;28;20044;-79
2022/01/22 01:44:22;;;;;;;22.85;6.93;;;4.60;91.50;;;;;;6306039;28;20055;-79
2022/01/22 01:47:24;;;;;;;13.35;5.82;;;4.60;91.40;;;;;;6305014;28;20104;-79
2022/01/22 01:50:27;;;;;;;16.85;7.38;;;4.60;91.50;;;;;;6304587;28;20127;-78
2022/01/22 01:53:45;;;;;;;16.27;6.60;;;4.60;91.50;;;;;;6303996;28;20163;-79
2022/01/22 02:00:13;;;;;;;13.75;6.55;;;4.60;91.60;;;;;;6306465;28;20041;-79
2022/01/22 02:03:15;;;;;;;14.68;6.13;;;4.60;91.40;;;;;;6306642;28;20044;-78
2022/01/22 02:06:16;;;;;;;16.73;6.57;;;4.60;91.60;;;;;;6306642;28;20047;-79
2022/01/22 02:09:19;;;;;;;21.65;6.90;;;4.60;91.60;;;;;;6306024;28;20072;-79
2022/01/22 02:12:41;;;;;;;19.17;8.43;;;4.60;91.60;;;;;;6307625;28;20048;-79
2022/01/22 02:25:54;;;;;;;16.33;7.55;;;4.70;91.40;;;;;;6306212;28;20040;-79
2022/01/22 02:28:56;;;;;;;17.33;8.15;;;4.60;91.40;;;;;;6304709;28;20049;-79
2022/01/22 02:32:15;;;;;;;19.58;7.57;;;4.60;91.40;;;;;;6306062;28;20139;-79
2022/01/22 02:35:24;;;;;;;19.27;7.65;;;4.70;91.50;;;;;;6305819;28;20048;-79
2022/01/22 02:38:34;;;;;;;15.25;6.28;;;4.70;91.50;;;;;;6308672;28;20555;-79
2022/01/22 02:41:40;;;;;;;17.25;7.50;;;4.70;91.40;;;;;;6306635;28;20138;-79
2022/01/22 02:44:44;;;;;;;13.40;6.68;;;4.70;91.30;;;;;;6305603;28;20052;-78
2022/01/22 02:47:47;;;;;;;23.20;7.55;;;4.70;91.40;;;;;;6306691;28;20045;-79
2022/01/22 02:50:48;;;;;;;19.60;7.60;;;4.80;91.30;;;;;;6306656;28;20561;-79
2022/01/22 02:53:54;;;;;;;30.35;7.95;;;4.70;91.20;;;;;;6305987;28;20049;-79
2022/01/22 02:56:56;;;;;;;16.92;8.50;;;4.70;91.40;;;;;;6307619;28;20134;-79
2022/01/22 02:59:59;;;;;;;15.52;6.93;;;4.80;91.10;;;;;;6308082;28;20045;-79
2022/01/22 03:03:02;;;;;;;24.33;6.90;;;4.70;91.20;;;;;;6307663;28;20594;-78
2022/01/22 03:06:04;;;;;;;21.20;6.90;;;4.70;91.20;;;;;;6311082;28;20048;-79
2022/01/22 03:09:10;;;;;;;21.70;7.10;;;4.80;91.30;;;;;;6312797;28;20040;-79
2022/01/22 03:12:42;;;;;;;20.23;7.45;;;4.80;91.30;;;;;;6312575;28;20055;-78
2022/01/22 03:15:56;;;;;;;14.10;7.07;;;4.90;91.10;;;;;;6312818;28;20052;-79
2022/01/22 03:19:03;;;;;;;25.65;7.90;;;4.90;91.10;;;;;;6312291;28;20070;-80
2022/01/22 03:22:16;;;;;;;15.23;6.53;;;5.00;91.00;;;;;;6310304;28;20531;-79
2022/01/22 03:28:51;;;;;;;22.75;6.13;;;5.00;90.70;;;;;;6313534;28;20044;-78
2022/01/22 03:31:53;;;;;;;18.83;7.72;;;4.90;90.80;;;;;;6321888;28;20048;-79
2022/01/22 03:34:57;;;;;;;17.83;6.57;;;4.90;90.70;;;;;;6314115;28;20067;-79
2022/01/22 03:37:59;;;;;;;19.13;6.07;;;4.90;90.80;;;;;;6310621;28;20087;-79
2022/01/22 03:41:02;;;;;;;20.52;6.68;;;4.80;90.70;;;;;;6311351;28;20055;-79
2022/01/22 03:44:06;;;;;;;15.73;6.28;;;4.80;90.80;;;;;;6311406;28;20056;-79
2022/01/22 03:47:07;;;;;;;16.08;8.18;;;4.80;90.80;;;;;;6309458;28;20482;-79
2022/01/22 03:50:12;;;;;;;17.00;7.68;;;4.80;90.70;;;;;;6309616;28;20053;-79
2022/01/22 03:53:13;;;;;;;19.90;6.40;;;4.90;90.80;;;;;;6309845;28;20050;-79
2022/01/22 03:56:17;;;;;;;13.00;5.70;;;4.90;90.60;;;;;;6308919;28;20048;-79
2022/01/22 03:59:19;;;;;;;16.67;6.35;;;4.90;90.60;;;;;;6312268;28;20045;-79
2022/01/22 04:03:01;;;;;;;18.70;5.80;;;4.90;90.70;;;;;;6310868;28;20044;-79
2022/01/22 04:09:19;;;;;;;13.13;7.35;;;4.90;90.70;;;;;;6297280;28;20421;-79
2022/01/22 04:12:30;;;;;;;16.15;5.85;;;4.90;90.60;;;;;;6311048;28;20052;-79
2022/01/22 04:15:36;;;;;;;15.00;6.45;;;5.00;90.60;;;;;;6308710;28;20041;-78
2022/01/22 04:25:21;;;;;;;;;;;4.90;90.50;;;;;;6287439;28;20033;-79
2022/01/22 04:28:24;;;;;;;13.65;6.57;;;5.10;90.50;;;;;;6307560;28;20017;-78
2022/01/22 04:31:26;;;;;;;17.98;7.15;;;5.10;90.30;;;;;;6307299;28;20048;-78
2022/01/22 04:34:28;;;;;;;18.23;7.05;;;5.20;90.20;;;;;;6309066;28;20044;-79
2022/01/22 04:37:30;;;;;;;14.35;7.07;;;5.20;90.20;;;;;;6309006;28;20677;-79
2022/01/22 04:40:32;;;;;;;21.27;7.28;;;5.20;90.10;;;;;;6307477;28;20049;-79
2022/01/22 04:43:37;;;;;;;17.77;6.13;;;5.10;90.10;;;;;;6306506;28;20505;-78
2022/01/22 04:46:55;;;;;;;16.90;6.70;;;5.10;90.10;;;;;;6306862;28;20051;-79
2022/01/22 04:56:38;;;;;;;14.07;5.15;;;5.20;89.90;;;;;;6288805;28;20545;-79
2022/01/22 04:59:41;;;;;;;18.20;5.75;;;5.20;89.60;;;;;;6307647;28;20064;-79
2022/01/22 05:02:43;;;;;;;19.30;5.82;;;5.20;89.60;;;;;;6326997;28;20107;-78
2022/01/22 05:05:45;;;;;;;13.25;7.22;;;5.20;89.30;;;;;;6331380;28;20101;-79
2022/01/22 05:08:46;;;;;;;11.93;5.07;;;5.20;89.60;;;;;;6331928;28;20112;-79
2022/01/22 05:11:48;;;;;;;15.85;6.30;;;5.20;89.40;;;;;;6332947;28;20051;-78
2022/01/22 05:14:51;;;;;;;14.98;6.10;;;5.10;89.10;;;;;;6329535;28;20041;-79
2022/01/22 05:17:58;;;;;;;18.33;5.85;;;5.10;89.40;;;;;;6307489;28;20121;-78
2022/01/22 05:21:07;;;;;;;13.73;5.63;;;5.10;89.50;;;;;;6308681;28;20048;-79
2022/01/22 05:24:13;;;;;;;19.70;5.65;;;5.20;89.30;;;;;;6308148;28;20505;-78
2022/01/22 05:31:01;;;;;;;;;;;5.20;89.20;;;;;;6307279;28;20040;-79
2022/01/22 05:37:22;;;;;;;14.85;6.47;;;5.20;88.90;;;;;;6306004;28;20096;-79
2022/01/22 05:40:25;;;;;;;22.90;7.43;;;5.20;89.20;;;;;;6307997;28;20047;-79
2022/01/22 05:43:27;;;;;;;11.85;6.50;;;5.20;89.10;;;;;;6307858;28;20048;-78
2022/01/22 05:46:31;;;;;;;25.85;7.15;;;5.20;89.40;;;;;;6303223;28;20143;-77
2022/01/22 05:49:36;;;;;;;17.80;7.03;;;5.30;89.40;;;;;;6299321;28;20041;-78
2022/01/22 05:52:50;;;;;;;22.40;7.20;;;5.30;89.10;;;;;;6298981;28;20134;-78
2022/01/22 06:02:30;;;;;;;19.92;7.55;;;5.30;89.00;;;;;;6298854;28;20518;-78
2022/01/22 06:05:31;;;;;;;20.10;8.10;;;5.30;88.90;;;;;;6296872;28;20064;-78
2022/01/22 06:08:39;;;;;;;17.95;6.32;;;5.30;89.10;;;;;;6298702;28;20048;-78
2022/01/22 06:11:53;;;;;;;17.80;7.03;;;5.30;88.90;;;;;;6299659;28;20146;-77
2022/01/22 06:14:55;;;;;;;12.68;6.70;;;5.40;89.10;;;;;;6298848;28;20102;-78
2022/01/22 06:17:58;;;;;;;18.83;8.50;;;5.40;89.10;;;;;;6299599;28;20049;-77
2022/01/22 06:21:00;;;;;;;15.00;7.22;;;5.30;89.30;;;;;;6299967;28;20048;-77
2022/01/22 06:24:02;;;;;;;22.77;8.18;;;5.30;89.40;;;;;;6300136;28;20325;-77
2022/01/22 06:27:04;;;;;;;19.35;7.93;;;5.40;89.40;;;;;;6301450;28;20041;-78
2022/01/22 06:30:07;;;;;;;19.67;8.15;;;5.40;89.30;;;;;;6297555;28;20529;-78
2022/01/22 06:33:10;;;;;;;22.10;8.73;;;5.40;89.20;;;;;;6297258;28;20040;-78
2022/01/22 06:36:12;;;;;;;16.77;8.45;;;5.50;89.20;;;;;;6297287;28;20052;-78
2022/01/22 06:39:15;;;;;;;18.13;8.00;;;5.50;89.10;;;;;;6298269;28;20041;-78
2022/01/22 06:42:16;;;;;;;21.48;9.23;;;5.50;89.00;;;;;;6302238;28;20113;-77
2022/01/22 06:45:18;;;;;;;21.38;9.02;;;5.50;89.10;;;;;;6302493;28;20040;-77
2022/01/22 06:48:21;;;;;;;22.63;8.90;;;5.50;89.10;;;;;;6304800;28;20045;-77
2022/01/22 06:51:25;;;;;;;26.73;10.25;;;5.50;89.00;;;;;;6304562;28;20075;-76
2022/01/22 06:54:27;;;;;;;13.98;8.20;;;5.50;89.00;;;;;;6311139;22;20052;-78
2022/01/22 06:57:29;;;;;;;20.15;9.63;;;5.50;89.20;;;;;;6281480;28;20044;-77
2022/01/22 07:00:30;;;;;;;18.25;7.97;;;5.50;89.10;;;;;;6283411;28;20049;-79
2022/01/22 07:03:33;;;;;;;26.48;9.48;;;5.50;89.30;;;;;;6281948;28;20425;-78
2022/01/22 07:06:36;;;;;;;19.35;8.90;;;5.50;89.40;;;;;;6281720;28;20045;-78
2022/01/22 07:09:38;;;;;;;21.95;9.27;;;5.60;89.20;;;;;;6280533;28;20512;-78
2022/01/22 07:12:41;;;;;;;18.45;8.90;;;5.60;89.00;;;;;;6281259;28;20045;-77
2022/01/22 07:15:42;;;;;;;21.02;9.23;;;5.60;88.90;;;;;;6280666;28;20071;-81
2022/01/22 07:18:45;;;;;;;17.38;9.10;;;5.70;89.00;;;;;;6281245;28;20420;-80
2022/01/22 07:21:56;;;;;;;25.88;9.57;;;5.70;88.70;;;;;;6281313;28;20045;-79
2022/01/22 07:24:58;;;;;;;22.85;9.52;;;5.60;88.80;;;;;;6281038;28;20060;-78
2022/01/22 07:28:00;;;;;;;17.00;9.25;;;5.60;88.90;;;;;;6281697;28;20524;-78
2022/01/22 07:31:03;;;;;;;19.95;8.38;;;5.70;88.90;;;;;;6281941;28;20065;-81
2022/01/22 07:34:06;;;;;;;29.63;10.50;;;5.80;88.60;;;;;;6280983;28;20041;-79
2022/01/22 07:37:08;;;;;;;16.58;8.68;;;5.80;88.50;;;;;;6280926;28;20041;-78
2022/01/22 07:40:12;;;;;;;23.45;8.95;;;5.70;88.50;;;;;;6283050;28;20086;-78
2022/01/22 07:43:16;;;;;;;26.27;10.45;;;5.80;88.60;;;;;;6278347;28;20470;-78
2022/01/22 07:46:17;;;;;;;23.88;8.80;;;5.80;88.50;;;;;;6278123;28;20041;-78
2022/01/22 07:49:20;;;;;;;19.25;8.88;;;5.80;88.50;;;;;;6278968;28;20033;-78
2022/01/22 07:52:22;;;;;;;27.42;9.77;;;5.80;88.40;;;;;;6279881;28;20563;-79
2022/01/22 07:55:24;;;;;;;22.70;9.68;;;5.80;88.60;;;;;;6279807;28;20045;-79
2022/01/22 07:58:26;;;;;;;19.33;9.23;;;5.80;88.70;;;;;;6277676;28;20167;-77
2022/01/22 08:01:28;;;;;;;21.00;8.95;;;5.90;88.50;;;;;;6278349;28;20048;-79
2022/01/22 08:04:31;;;;;;;24.00;10.07;;;6.00;88.10;;;;;;6278380;28;20059;-78
2022/01/22 08:07:33;;;;;;;16.50;8.32;;;6.00;88.00;;;;;;6279017;28;20041;-79
2022/01/22 08:10:34;;;;;;;19.63;8.85;;;6.00;87.60;;;;;;6279807;28;20494;-78
2022/01/22 08:13:36;;;;;;;20.77;8.00;;;6.10;87.60;;;;;;6280191;28;20053;-78
2022/01/22 08:16:38;;;;;;;23.88;9.05;;;6.00;87.50;;;;;;6278303;28;20495;-77
2022/01/22 08:19:41;;;;;;;28.00;9.13;;;6.00;87.50;;;;;;6249023;28;20493;-77
2022/01/22 08:22:44;;;;;;;19.52;8.52;;;6.00;87.50;;;;;;6274937;28;20057;-77
2022/01/22 08:25:47;;;;;;;19.20;8.93;;;6.00;87.40;;;;;;6276189;28;20053;-78
2022/01/22 08:28:57;;;;;;;26.33;8.82;;;6.00;87.40;;;;;;6276156;28;20045;-77
2022/01/22 08:32:08;;;;;;;24.38;10.70;;;6.00;87.60;;;;;;6275946;28;20088;-78
2022/01/22 08:38:32;;;;;;;16.67;7.70;;;6.00;87.10;;;;;;6276472;28;20076;-77
2022/01/22 08:41:34;;;;;;;14.43;7.40;;;6.00;87.10;;;;;;6275752;28;20104;-77
2022/01/22 08:44:36;;;;;;;18.23;7.68;;;6.00;87.00;;;;;;6274039;28;20099;-78
2022/01/22 08:47:38;;;;;;;27.50;8.07;;;6.00;87.40;;;;;;6275359;28;20502;-78
2022/01/22 08:50:41;;;;;;;14.57;7.47;;;6.00;87.40;;;;;;6276306;28;20052;-80
2022/01/22 08:53:43;;;;;;;20.80;6.95;;;6.00;87.80;;;;;;6275680;28;20045;-77
2022/01/22 08:56:45;;;;;;;18.45;8.65;;;6.10;86.80;;;;;;6275764;28;20056;-78
2022/01/22 08:59:47;;;;;;;19.55;7.28;;;6.00;86.80;;;;;;6274417;28;20064;-79
2022/01/22 09:02:50;;;;;;;12.48;7.40;;;6.10;86.80;;;;;;6274507;28;20150;-77
2022/01/22 09:05:54;;;;;;;15.88;7.00;;;6.00;86.50;;;;;;6273477;28;20417;-77
2022/01/22 09:09:05;;;;;;;19.25;7.95;;;6.00;86.40;;;;;;6273611;28;20533;-77
2022/01/22 09:12:09;;;;;;;18.23;7.32;;;6.10;86.40;;;;;;6273375;28;20136;-79
2022/01/22 09:15:11;;;;;;;17.23;8.27;;;6.20;86.50;;;;;;6273849;28;20045;-78
2022/01/22 09:18:13;;;;;;;22.27;7.10;;;6.30;85.60;;;;;;6275286;28;20524;-78
2022/01/22 09:21:16;;;;;;;15.77;6.72;;;6.20;85.60;;;;;;6274786;28;20048;-77
2022/01/22 09:24:18;;;;;;;21.20;7.10;;;6.30;85.30;;;;;;6274453;28;20055;-78
2022/01/22 09:27:20;;;;;;;18.30;7.10;;;6.30;85.40;;;;;;6275466;28;20045;-78
2022/01/22 09:30:22;;;;;;;16.08;6.50;;;6.40;86.00;;;;;;6275437;28;20051;-78
2022/01/22 09:33:24;;;;;;;20.65;7.55;;;6.40;84.90;;;;;;6275439;28;20045;-78
2022/01/22 09:36:28;;;;;;;18.15;7.15;;;6.40;84.80;;;;;;6276164;28;20124;-76
2022/01/22 09:39:31;;;;;;;15.48;7.28;;;6.40;85.10;;;;;;6275337;28;20118;-77
2022/01/22 09:42:33;;;;;;;16.38;7.25;;;6.50;84.70;;;;;;6275181;28;20084;-77
2022/01/22 09:45:34;;;;;;;13.45;7.00;;;6.40;84.60;;;;;;6275310;28;20190;-78
2022/01/22 09:48:40;;;;;;;13.60;5.80;;;6.40;84.80;;;;;;6259581;28;20527;-78
2022/01/22 09:51:44;;;;;;;16.13;6.57;;;6.40;84.60;;;;;;6250263;28;20046;-78
2022/01/22 09:54:46;;;;;;;13.52;6.45;;;6.40;84.60;;;;;;6250109;28;20474;-79
2022/01/22 09:57:48;;;;;;;11.43;5.85;;;6.50;84.90;;;;;;6249575;28;20057;-77
2022/01/22 10:00:50;;;;;;;25.90;6.82;;;6.60;84.40;;;;;;6263010;28;20590;-78
2022/01/22 10:03:54;;;;;;;20.90;7.28;;;6.70;84.20;;;;;;6274231;28;20057;-78
2022/01/22 10:06:57;;;;;;;17.10;6.97;;;6.70;83.80;;;;;;6272549;28;20524;-78
2022/01/22 10:10:00;;;;;;;16.45;6.78;;;6.70;83.70;;;;;;6273747;28;20037;-78
2022/01/22 10:13:02;;;;;;;21.80;6.57;;;6.70;84.00;;;;;;6274388;28;20230;-78
2022/01/22 10:16:12;;;;;;;12.90;6.15;;;6.80;83.70;;;;;;6273664;28;20056;-78
2022/01/22 10:19:18;;;;;;;20.75;7.75;;;6.80;83.30;;;;;;6272959;28;20418;-78
2022/01/22 10:22:21;;;;;;;15.63;7.03;;;6.80;83.10;;;;;;6277844;28;20044;-78
2022/01/22 10:25:26;;;;;;;12.60;5.50;;;6.80;83.20;;;;;;6288507;28;20506;-80
2022/01/22 10:28:30;;;;;;;15.20;6.50;;;6.80;83.60;;;;;;6290599;28;20045;-80
2022/01/22 10:31:41;;;;;;;15.43;6.30;;;6.80;82.90;;;;;;6296472;28;20387;-78
2022/01/22 10:34:43;;;;;;;13.15;7.35;;;6.90;83.00;;;;;;6287976;28;20045;-79
2022/01/22 10:37:47;;;;;;;14.80;7.35;;;6.90;83.30;;;;;;6286408;28;20053;-78
2022/01/22 10:40:50;;;;;;;14.25;7.45;;;7.00;83.00;;;;;;6291799;28;20037;-79
2022/01/22 10:43:54;;;;;;;16.15;6.43;;;7.00;82.50;;;;;;6291935;28;20559;-79
2022/01/22 10:47:03;;;;;;;19.95;7.35;;;7.00;82.50;;;;;;6289606;28;20128;-79
2022/01/22 10:50:20;;;;;;;17.75;6.80;;;7.00;82.20;;;;;;6291954;28;20045;-79
2022/01/22 10:53:34;;;;;;;13.93;6.65;;;7.00;82.30;;;;;;6287074;28;20119;-79
2022/01/22 10:56:39;;;;;;;17.38;6.53;;;7.10;81.80;;;;;;6288218;28;20065;-79
2022/01/22 10:59:47;;;;;;;17.67;7.88;;;7.00;81.80;;;;;;6287310;28;20048;-79
2022/01/22 11:02:48;;;;;;;18.80;6.78;;;7.10;81.70;;;;;;6287459;28;20041;-79
2022/01/22 11:05:50;;;;;;;13.35;5.85;;;7.10;81.50;;;;;;6287326;28;20060;-79
2022/01/22 11:08:53;;;;;;;25.25;7.68;;;7.10;81.60;;;;;;6287935;28;20174;-78
2022/01/22 11:11:55;;;;;;;19.35;6.38;;;7.10;81.50;;;;;;6287822;28;20045;-79
2022/01/22 11:14:57;;;;;;;15.75;7.80;;;7.20;81.10;;;;;;6285989;28;20045;-79
2022/01/22 11:18:00;;;;;;;18.88;7.18;;;7.20;81.50;;;;;;6285591;28;20123;-79
2022/01/22 11:21:03;;;;;;;16.95;8.25;;;7.20;81.00;;;;;;6300812;28;20048;-79
2022/01/22 11:24:07;;;;;;;15.52;8.20;;;7.30;81.20;;;;;;6302768;28;20051;-78
2022/01/22 11:27:10;;;;;;;20.13;7.60;;;7.40;80.30;;;;;;6304857;28;20524;-80
2022/01/22 11:30:16;;;;;;;20.60;7.10;;;7.40;80.20;;;;;;6305951;28;20041;-80
2022/01/22 11:33:21;;;;;;;14.13;7.68;;;7.50;80.10;;;;;;6305451;28;20046;-79
2022/01/22 11:36:28;;;;;;;23.15;8.95;;;7.40;80.20;;;;;;6309606;28;20446;-79
2022/01/22 11:39:31;;;;;;;18.00;8.10;;;7.40;80.40;;;;;;6304987;28;20045;-79
2022/01/22 11:42:55;;;;;;;19.83;7.63;;;7.40;80.50;;;;;;6304996;28;20573;-79
2022/01/22 11:45:57;;;;;;;17.63;7.03;;;7.40;80.80;;;;;;6291681;28;20052;-81
2022/01/22 11:49:22;;;;;;;19.85;7.68;;;7.50;80.90;;;;;;6280293;28;20076;-78
2022/01/22 11:52:26;;;;;;;17.90;7.53;;;7.40;80.50;;;;;;6280325;28;20135;-78
2022/01/22 11:55:30;;;;;;;17.35;7.63;;;7.40;80.20;;;;;;6278107;28;20049;-78
2022/01/22 11:58:31;;;;;;;20.73;7.82;;;7.30;80.60;;;;;;6279367;28;20124;-78
2022/01/22 12:01:53;;;;;;;19.80;8.68;;;7.30;81.00;;;;;;6280547;28;20049;-78
2022/01/22 12:05:04;;;;;;;16.98;7.60;;;7.30;81.30;;;;;;6278315;28;20071;-81
2022/01/22 12:08:06;;;;;;;17.15;7.97;;;7.40;81.20;;;;;;6280644;28;20055;-82
2022/01/22 12:15:00;;;;;;;16.10;6.93;;;7.50;80.80;;;;;;6278318;28;20296;-79
2022/01/22 12:18:11;;;;;;;26.38;9.05;;;7.40;81.10;;;;;;6278297;28;20052;-80
2022/01/22 12:21:35;;;;;;;20.10;9.27;;;7.50;81.10;;;;;;6279279;28;20049;-79
2022/01/22 12:24:37;;;;;;;12.88;7.95;;;7.50;81.10;;;;;;6278744;28;20049;-78
2022/01/22 12:27:44;;;;;;;17.80;8.70;;;7.60;81.30;;;;;;6278090;28;20059;-78
2022/01/22 12:30:49;;;;;;;12.50;7.00;;;7.80;81.00;;;;;;6277536;28;20175;-79
2022/01/22 12:33:53;;;;;;;25.13;11.05;;;7.90;79.90;;;;;;6276668;28;20131;-78
2022/01/22 12:36:55;;;;;;;20.38;7.95;;;7.80;80.00;;;;;;6277799;28;20406;-79
2022/01/22 12:39:58;;;;;;;21.60;8.98;;;7.80;80.20;;;;;;6278713;28;20059;-78
2022/01/22 12:43:07;;;;;;;22.45;9.23;;;7.80;80.30;;;;;;6278606;28;20053;-79
2022/01/22 12:46:09;;;;;;;15.00;8.02;;;7.80;80.20;;;;;;6277964;28;20045;-79
2022/01/22 12:49:16;;;;;;;19.33;8.20;;;7.90;80.00;;;;;;6278866;28;20051;-78
2022/01/22 12:52:18;;;;;;;18.92;8.57;;;8.00;79.90;;;;;;6277642;28;20553;-78
2022/01/22 12:55:26;;;;;;;20.45;8.38;;;7.90;79.60;;;;;;6301927;22;20060;-81
2022/01/22 12:58:32;;;;;;;18.30;8.20;;;8.00;79.40;;;;;;6277772;28;20128;-78
2022/01/22 13:01:35;;;;;;;12.57;7.05;;;8.00;79.40;;;;;;6278319;28;20569;-80
2022/01/22 13:04:36;;;;;;;15.40;8.73;;;8.00;79.50;;;;;;6260865;28;20454;-79
2022/01/22 13:07:39;;;;;;;21.45;11.60;;;8.00;79.60;;;;;;6252555;28;20053;-77
2022/01/22 13:10:44;;;;;;;22.40;8.05;;;8.00;79.70;;;;;;6252785;28;20518;-79
2022/01/22 13:13:51;;;;;;;18.88;7.07;;;8.10;79.30;;;;;;6253287;28;20125;-80
2022/01/22 13:16:55;;;;;;;15.57;7.10;;;8.00;79.10;;;;;;6252963;28;20041;-79
2022/01/22 13:19:56;;;;;;;17.70;8.75;;;8.00;79.10;;;;;;6253740;28;20132;-81
2022/01/22 13:23:02;;;;;;;23.83;8.57;;;8.00;79.40;;;;;;6250351;28;20053;-81
2022/01/22 13:26:03;;;;;;;29.83;10.30;;;8.10;79.00;;;;;;6251220;28;20155;-80
2022/01/22 13:29:17;;;;;;;54.03;27.00;;;8.10;79.00;;;;;;6252793;28;20041;-80
2022/01/22 13:32:27;;;;;;;41.17;18.35;;;8.10;78.80;;;;;;6253398;28;20134;-81
2022/01/22 13:35:44;;;;;;;14.35;8.18;;;8.10;79.00;;;;;;6251211;28;20053;-81
2022/01/22 13:39:06;;;;;;;20.75;9.52;;;8.10;78.70;;;;;;6252897;28;20077;-80
2022/01/22 13:48:45;;;;;;;19.90;7.60;;;7.90;79.10;;;;;;6253113;28;20057;-81
2022/01/22 13:51:47;;;;;;;14.35;6.90;;;8.00;80.10;;;;;;6255143;28;20129;-80
2022/01/22 13:54:52;;;;;;;14.88;8.25;;;8.00;78.80;;;;;;6254423;28;20216;-79
2022/01/22 13:57:53;;;;;;;17.80;9.65;;;8.00;78.80;;;;;;6254505;28;20052;-81
2022/01/22 14:01:04;;;;;;;16.23;7.93;;;8.00;79.10;;;;;;6254558;28;20057;-81
2022/01/22 14:04:07;;;;;;;20.25;7.70;;;8.00;78.70;;;;;;6255155;28;20053;-80
2022/01/22 14:07:16;;;;;;;17.83;8.52;;;8.00;79.00;;;;;;6252629;28;20042;-79
2022/01/22 14:10:20;;;;;;;23.10;8.38;;;8.00;78.70;;;;;;6252697;28;20085;-80
2022/01/22 14:13:22;;;;;;;20.63;6.70;;;7.90;78.90;;;;;;6254464;28;20049;-80
2022/01/22 14:16:28;;;;;;;19.75;8.23;;;7.90;79.10;;;;;;6254880;28;20602;-81
2022/01/22 14:19:30;;;;;;;24.98;8.95;;;7.90;79.00;;;;;;6254678;28;20384;-80
2022/01/22 14:22:53;;;;;;;18.02;8.05;;;7.90;79.20;;;;;;6259556;28;20045;-80
2022/01/22 14:25:57;;;;;;;24.02;8.15;;;7.90;79.10;;;;;;6254603;28;20052;-81
2022/01/22 14:29:04;;;;;;;21.92;8.65;;;7.90;79.10;;;;;;6254236;28;20053;-84
2022/01/22 14:32:17;;;;;;;15.05;7.45;;;8.00;79.50;;;;;;6254726;28;20049;-82
2022/01/22 14:35:22;;;;;;;21.42;6.82;;;8.00;78.70;;;;;;6253749;28;20073;-82
2022/01/22 14:38:41;;;;;;;14.20;8.10;;;8.00;78.90;;;;;;6253984;28;20594;-82
2022/01/22 14:45:13;;;;;;;20.00;6.85;;;7.90;78.90;;;;;;6251476;28;20037;-81
2022/01/22 14:48:16;;;;;;;16.60;8.32;;;7.90;79.10;;;;;;6251419;28;20059;-82
2022/01/22 14:51:18;;;;;;;18.45;8.07;;;7.80;79.30;;;;;;6252928;28;20038;-82
2022/01/22 14:54:21;;;;;;;15.25;7.28;;;7.90;79.50;;;;;;6251270;28;20096;-79
2022/01/22 14:57:30;;;;;;;23.95;8.23;;;7.80;79.50;;;;;;6250961;28;20056;-82
2022/01/22 15:00:32;;;;;;;13.02;7.38;;;7.80;79.80;;;;;;6251398;28;20055;-81
2022/01/22 15:03:35;;;;;;;21.52;9.18;;;7.70;80.00;;;;;;6255081;28;20116;-82
2022/01/22 15:06:39;;;;;;;23.60;8.85;;;7.70;80.20;;;;;;6253328;28;20120;-82
2022/01/22 15:09:44;;;;;;;21.02;7.95;;;7.70;80.40;;;;;;6255184;28;20041;-82
2022/01/22 15:12:46;;;;;;;21.83;7.78;;;7.70;80.60;;;;;;6253336;28;20045;-81
2022/01/22 15:15:49;;;;;;;19.67;8.93;;;7.60;80.50;;;;;;6251004;28;20049;-81
2022/01/22 15:18:59;;;;;;;19.98;7.78;;;7.60;80.60;;;;;;6252606;28;20689;-82
2022/01/22 15:22:01;;;;;;;19.05;8.38;;;7.50;80.60;;;;;;6252126;28;20041;-81
2022/01/22 15:25:03;;;;;;;17.63;7.30;;;7.50;80.80;;;;;;6265160;28;20053;-81
2022/01/22 15:28:05;;;;;;;21.55;7.65;;;7.50;81.20;;;;;;6257577;28;20133;-82
2022/01/22 15:31:15;;;;;;;14.15;6.82;;;7.50;81.20;;;;;;6255748;28;20566;-83
2022/01/22 15:34:38;;;;;;;18.98;7.32;;;7.50;81.40;;;;;;6252614;28;20045;-82
2022/01/22 15:37:47;;;;;;;17.60;7.85;;;7.50;81.40;;;;;;6251414;28;20045;-81
2022/01/22 15:40:49;;;;;;;14.55;8.32;;;7.40;81.60;;;;;;6251642;28;20049;-81
2022/01/22 15:43:51;;;;;;;18.27;7.75;;;7.40;81.90;;;;;;6251695;28;20054;-80
2022/01/22 15:46:53;;;;;;;12.48;7.25;;;7.40;81.80;;;;;;6250627;28;20049;-80
2022/01/22 15:49:58;;;;;;;14.40;7.10;;;7.40;81.80;;;;;;6251840;28;20050;-80
2022/01/22 15:52:59;;;;;;;13.05;6.55;;;7.40;82.00;;;;;;6251983;28;20052;-80
2022/01/22 15:56:01;;;;;;;16.27;6.85;;;7.40;81.90;;;;;;6252522;28;20049;-82
2022/01/22 15:59:05;;;;;;;12.60;6.47;;;7.30;81.90;;;;;;6252197;28;20075;-80
2022/01/22 16:02:07;;;;;;;20.23;8.05;;;7.30;82.20;;;;;;6251234;28;20555;-80
2022/01/22 16:05:11;;;;;;;16.98;7.63;;;7.30;82.00;;;;;;6249977;28;20372;-80
2022/01/22 16:08:13;;;;;;;16.00;9.02;;;7.40;82.10;;;;;;6250852;28;20060;-80
2022/01/22 16:11:16;;;;;;;17.80;8.55;;;7.40;82.00;;;;;;6253814;28;20045;-80
2022/01/22 16:14:18;;;;;;;17.90;7.57;;;7.40;81.90;;;;;;6255038;28;20045;-80
2022/01/22 16:17:23;;;;;;;11.40;6.80;;;7.40;82.10;;;;;;6254323;28;20045;-80
2022/01/22 16:20:27;;;;;;;14.60;7.05;;;7.40;81.80;;;;;;6255756;28;20049;-77
2022/01/22 16:23:29;;;;;;;80.15;43.35;;;7.40;81.80;;;;;;6255167;28;20041;-80
2022/01/22 16:26:30;;;;;;;16.17;8.18;;;7.40;81.80;;;;;;6253862;28;20068;-80
2022/01/22 16:29:32;;;;;;;16.42;7.80;;;7.30;82.00;;;;;;6254861;28;20065;-80
2022/01/22 16:32:34;;;;;;;20.02;8.35;;;7.30;82.00;;;;;;6257155;28;20053;-82
2022/01/22 16:35:37;;;;;;;14.88;7.30;;;7.20;82.10;;;;;;6252531;28;20061;-80
2022/01/22 16:38:40;;;;;;;20.77;8.27;;;7.20;82.20;;;;;;6254712;28;20060;-80
2022/01/22 16:41:42;;;;;;;17.05;8.05;;;7.20;82.20;;;;;;6255334;28;20045;-80
2022/01/22 16:44:53;;;;;;;12.63;7.82;;;7.10;82.20;;;;;;6255817;28;20057;-79
2022/01/22 16:51:34;;;;;;;22.20;9.10;;;7.20;82.60;;;;;;6203564;28;20039;-80
2022/01/22 16:54:41;;;;;;;15.43;6.82;;;7.10;82.50;;;;;;6254821;28;20045;-79
2022/01/22 16:57:45;;;;;;;15.40;7.35;;;7.10;82.50;;;;;;6256769;28;20041;-79
2022/01/22 17:00:57;;;;;;;16.50;6.95;;;7.10;82.40;;;;;;6256493;28;20056;-79
2022/01/22 17:04:00;;;;;;;16.10;8.30;;;7.10;82.10;;;;;;6254996;28;20074;-82
2022/01/22 17:07:05;;;;;;;17.58;7.13;;;7.10;82.50;;;;;;6254285;28;20041;-80
2022/01/22 17:10:20;;;;;;;13.52;7.35;;;7.10;82.50;;;;;;6253769;28;20052;-78
2022/01/22 17:16:41;;;;;;;15.63;7.28;;;7.00;82.50;;;;;;6254788;28;20434;-81
2022/01/22 17:19:43;;;;;;;15.68;7.32;;;6.90;82.60;;;;;;6256969;28;20053;-79
2022/01/22 17:22:46;;;;;;;12.65;7.18;;;6.90;82.90;;;;;;6254466;28;20115;-79
2022/01/22 17:25:48;;;;;;;22.33;8.55;;;6.90;83.10;;;;;;6257174;28;20041;-81
2022/01/22 17:28:50;;;;;;;15.02;8.73;;;6.90;83.10;;;;;;6254817;28;20064;-80
2022/01/22 17:31:52;;;;;;;18.25;8.88;;;7.00;83.50;;;;;;6255137;28;20049;-79
2022/01/22 17:34:54;;;;;;;17.45;8.10;;;6.90;83.00;;;;;;6254259;28;20041;-79